Terminal Aerodrome Forecast
Issued by NWS

Home | Current Version | Previous Version | Text Only | Print | Product List | Glossary Off
Versions: 1 2 3 4 5 6 7 8 9 10 11 12 13 14 15 16 17 18 19 20 21 22 23 24 25 26 27 28 29 30 31 32 33 34 35

000
FTUS43 KLOT 271734
TAFMDW
TAF
KMDW 271734Z 2718/2818 02012G18KT P6SM BKN250
     FM280100 36008KT P6SM SCT250
     FM280400 30004KT P6SM FEW250
     FM281500 20007KT P6SM FEW050 SCT250=

USA.gov is the U.S. government's official web portal to all federal, state and local government web resources and services.